UAL704 KDEN-KABQ
Flight info
| Callsign | UAL704 |
|---|---|
| Flight time | N/A |
| Altitude | 36000 |
| Route | SMMUR2 DAAYE DATME SNDIA4 |
| Aircraft | B739/M-SDE2E3FGHIRWXY/LB1 |
Departure
| Time | N/A |
|---|---|
| Airport | Denver International Airport (KDEN) |
Arrival
| Time | 2026-05-04 18:02 |
|---|---|
| Airport | Albuquerque International Sunport (KABQ) |
| Time | Latitude | Longitude | Altitude | Speed | Heading |
|---|---|---|---|---|---|
| 2026-05-04 17:50 | 35.40633 | -106.67739 | 12738 ft | 286 kts | 209° |
| 2026-05-04 17:51 | 35.38821 | -106.68714 | 12406 ft | 284 kts | 208° |
| 2026-05-04 17:51 | 35.37013 | -106.69687 | 12050 ft | 283 kts | 208° |
| 2026-05-04 17:51 | 35.35209 | -106.70658 | 11700 ft | 282 kts | 208° |
| 2026-05-04 17:51 | 35.33415 | -106.71622 | 11359 ft | 282 kts | 207° |
| 2026-05-04 17:52 | 35.31620 | -106.72586 | 11002 ft | 281 kts | 208° |
| 2026-05-04 17:52 | 35.29834 | -106.73544 | 10674 ft | 280 kts | 207° |
| 2026-05-04 17:52 | 35.28053 | -106.74529 | 10334 ft | 279 kts | 209° |
| 2026-05-04 17:52 | 35.26317 | -106.75589 | 10008 ft | 278 kts | 210° |
| 2026-05-04 17:53 | 35.24620 | -106.76647 | 9858 ft | 270 kts | 210° |
| 2026-05-04 17:53 | 35.22953 | -106.77685 | 9536 ft | 268 kts | 210° |
| 2026-05-04 17:53 | 35.21321 | -106.78696 | 9361 ft | 261 kts | 210° |
| 2026-05-04 17:53 | 35.19728 | -106.79676 | 9223 ft | 252 kts | 210° |
| 2026-05-04 17:54 | 35.18184 | -106.80624 | 9102 ft | 243 kts | 210° |
| 2026-05-04 17:54 | 35.16703 | -106.81532 | 8990 ft | 234 kts | 210° |
| 2026-05-04 17:54 | 35.15244 | -106.82427 | 8998 ft | 235 kts | 210° |
| 2026-05-04 17:54 | 35.13774 | -106.83335 | 8806 ft | 238 kts | 210° |
| 2026-05-04 17:55 | 35.12462 | -106.84493 | 8581 ft | 234 kts | 230° |
| 2026-05-04 17:55 | 35.11398 | -106.85986 | 8450 ft | 232 kts | 233° |
| 2026-05-04 17:55 | 35.10567 | -106.87647 | 8133 ft | 227 kts | 245° |
| 2026-05-04 17:55 | 35.09886 | -106.89332 | 8083 ft | 215 kts | 245° |
| 2026-05-04 17:56 | 35.09241 | -106.90926 | 7965 ft | 203 kts | 245° |
| 2026-05-04 17:56 | 35.08383 | -106.92251 | 7809 ft | 203 kts | 216° |
| 2026-05-04 17:56 | 35.07053 | -106.92888 | 7582 ft | 213 kts | 188° |
| 2026-05-04 17:56 | 35.05640 | -106.92418 | 7355 ft | 215 kts | 144° |
| 2026-05-04 17:57 | 35.04876 | -106.90923 | 7140 ft | 209 kts | 99° |
| 2026-05-04 17:57 | 35.04679 | -106.89216 | 7179 ft | 204 kts | 101° |
| 2026-05-04 17:57 | 35.04536 | -106.87474 | 7411 ft | 204 kts | 91° |
| 2026-05-04 17:57 | 35.04558 | -106.85777 | 7404 ft | 202 kts | 90° |
| 2026-05-04 17:58 | 35.04555 | -106.84050 | 7411 ft | 203 kts | 95° |
| 2026-05-04 17:58 | 35.04426 | -106.82352 | 7405 ft | 198 kts | 96° |
| 2026-05-04 17:58 | 35.04343 | -106.80682 | 7396 ft | 197 kts | 92° |
| 2026-05-04 17:58 | 35.04330 | -106.78994 | 7399 ft | 200 kts | 89° |
| 2026-05-04 17:59 | 35.04356 | -106.77288 | 7370 ft | 202 kts | 89° |
| 2026-05-04 17:59 | 35.04385 | -106.76149 | 7315 ft | 202 kts | 88° |
| 2026-05-04 17:59 | 35.04476 | -106.72870 | 6990 ft | 191 kts | 89° |
| 2026-05-04 18:00 | 35.04486 | -106.70756 | 6771 ft | 186 kts | 91° |
| 2026-05-04 18:00 | 35.04478 | -106.69169 | 6567 ft | 189 kts | 92° |
| 2026-05-04 18:00 | 35.04472 | -106.68073 | 6402 ft | 191 kts | 92° |
| 2026-05-04 18:00 | 35.04464 | -106.66452 | 6100 ft | 189 kts | 90° |
| 2026-05-04 18:01 | 35.04457 | -106.64866 | 5853 ft | 185 kts | 92° |
| 2026-05-04 18:01 | 35.04450 | -106.63264 | 5593 ft | 191 kts | 93° |
| 2026-05-04 18:01 | 35.04443 | -106.61663 | 5360 ft | 186 kts | 92° |
| 2026-05-04 18:02 | 35.04340 | -106.59137 | 5320 ft | 77 kts | 100° |
| 2026-05-04 18:02 | 35.04251 | -106.58752 | 5334 ft | 31 kts | 90° |
| 2026-05-04 18:02 | 35.04260 | -106.58565 | 5333 ft | 14 kts | 82° |
| 2026-05-04 18:02 | 35.04262 | -106.58404 | 5330 ft | 19 kts | 90° |
| 2026-05-04 18:03 | 35.04294 | -106.58287 | 5319 ft | 12 kts | 26° |
| 2026-05-04 18:03 | 35.04371 | -106.58313 | 5320 ft | 12 kts | 319° |
| 2026-05-04 18:03 | 35.04408 | -106.58398 | 5333 ft | 11 kts | 283° |
| 2026-05-04 18:03 | 35.04414 | -106.58479 | 5329 ft | 8 kts | 271° |
| 2026-05-04 18:04 | 35.04415 | -106.58538 | 5329 ft | 6 kts | 271° |
| 2026-05-04 18:04 | 35.04416 | -106.58591 | 5329 ft | 6 kts | 270° |
| 2026-05-04 18:04 | 35.04413 | -106.58677 | 5329 ft | 5 kts | 268° |
| 2026-05-04 18:05 | 35.04413 | -106.58717 | 5329 ft | 5 kts | 270° |
| 2026-05-04 18:05 | 35.04417 | -106.58758 | 5329 ft | 6 kts | 288° |
| 2026-05-04 18:05 | 35.04452 | -106.58805 | 5332 ft | 10 kts | 332° |
| 2026-05-04 18:05 | 35.04536 | -106.58814 | 5331 ft | 15 kts | 0° |
| 2026-05-04 18:06 | 35.04676 | -106.58987 | 5327 ft | 18 kts | 271° |
| 2026-05-04 18:06 | 35.04678 | -106.59134 | 5326 ft | 18 kts | 270° |
| 2026-05-04 18:06 | 35.04680 | -106.59285 | 5325 ft | 17 kts | 270° |
| 2026-05-04 18:07 | 35.04679 | -106.59427 | 5330 ft | 16 kts | 269° |
| 2026-05-04 18:07 | 35.04679 | -106.59563 | 5332 ft | 16 kts | 271° |
| 2026-05-04 18:07 | 35.04747 | -106.59640 | 5333 ft | 15 kts | 352° |
| 2026-05-04 18:07 | 35.04821 | -106.59623 | 5333 ft | 8 kts | 84° |
| 2026-05-04 18:08 | 35.04821 | -106.59592 | 5331 ft | 0 kts | 89° |